Cleveland, Ohio
Traffic Map
Current Weather Conditions
Cleveland, Ohio
Overcast
Overcast
31°
Feels Like: 25°
Wind Chill: 25° Ceiling: 2600
Heat Index: 31° Visibility: 10mi
Dew Point: 21° Wind: 6mph
Humidity: 67% Direction: 240° (WSW)
Pressure: 30.32in Gusts: 0mph
Raw Report DataKBKL 211253Z 24005KT 10SM OVC026 M01/M06 A3032 RMK AO2 SLP275 T10061061
Traffic Incident Summary
Active as of:
Severity:
Category:
InformationThere was an issue retrieving the traffic information for this location. Please try a different location or try again shortly.
Advertisements
Track Severe Weather on mobile